sensor_id;sensor_type;location;lat;lon;timestamp;pressure;altitude;pressure_sealevel;temperature;humidity
49843;BME280;55559;48.898;9.184;2023-01-27T00:00:48;98722.81;;;-1.89;100.00
49843;BME280;55559;48.898;9.184;2023-01-27T00:03:15;98724.59;;;-1.91;100.00
49843;BME280;55559;48.898;9.184;2023-01-27T00:05:45;98726.19;;;-1.85;100.00
49843;BME280;55559;48.898;9.184;2023-01-27T00:08:13;98717.44;;;-1.84;100.00
49843;BME280;55559;48.898;9.184;2023-01-27T00:10:41;98707.00;;;-1.84;100.00
49843;BME280;55559;48.898;9.184;2023-01-27T00:13:09;98710.53;;;-1.85;100.00
49843;BME280;55559;48.898;9.184;2023-01-27T00:15:52;98705.53;;;-1.91;100.00
49843;BME280;55559;48.898;9.184;2023-01-27T00:18:20;98705.16;;;-1.80;100.00
49843;BME280;55559;48.898;9.184;2023-01-27T00:20:49;98710.38;;;-1.80;100.00
49843;BME280;55559;48.898;9.184;2023-01-27T00:23:35;98693.09;;;-1.83;100.00
49843;BME280;55559;48.898;9.184;2023-01-27T00:26:19;98701.34;;;-1.70;100.00
49843;BME280;55559;48.898;9.184;2023-01-27T00:28:47;98702.31;;;-1.74;100.00
49843;BME280;55559;48.898;9.184;2023-01-27T00:31:16;98697.91;;;-1.72;100.00
49843;BME280;55559;48.898;9.184;2023-01-27T00:34:02;98697.13;;;-1.74;100.00
49843;BME280;55559;48.898;9.184;2023-01-27T00:36:36;98698.94;;;-1.76;100.00
49843;BME280;55559;48.898;9.184;2023-01-27T00:39:03;98702.44;;;-1.77;100.00
49843;BME280;55559;48.898;9.184;2023-01-27T00:41:31;98704.88;;;-1.73;100.00
49843;BME280;55559;48.898;9.184;2023-01-27T00:44:00;98702.44;;;-1.77;100.00
49843;BME280;55559;48.898;9.184;2023-01-27T00:46:28;98711.19;;;-1.78;100.00
49843;BME280;55559;48.898;9.184;2023-01-27T00:48:55;98709.25;;;-1.73;100.00
49843;BME280;55559;48.898;9.184;2023-01-27T00:51:23;98702.38;;;-1.76;100.00
49843;BME280;55559;48.898;9.184;2023-01-27T00:53:52;98703.34;;;-1.78;100.00
49843;BME280;55559;48.898;9.184;2023-01-27T00:56:19;98697.25;;;-1.79;100.00
49843;BME280;55559;48.898;9.184;2023-01-27T00:58:47;98699.66;;;-1.73;100.00
49843;BME280;55559;48.898;9.184;2023-01-27T01:01:15;98707.53;;;-1.74;100.00
49843;BME280;55559;48.898;9.184;2023-01-27T01:03:44;98710.03;;;-1.71;100.00
49843;BME280;55559;48.898;9.184;2023-01-27T01:06:15;98707.19;;;-1.63;100.00
49843;BME280;55559;48.898;9.184;2023-01-27T01:08:43;98711.06;;;-1.75;100.00
49843;BME280;55559;48.898;9.184;2023-01-27T01:11:13;98711.75;;;-1.70;100.00
49843;BME280;55559;48.898;9.184;2023-01-27T01:13:41;98709.09;;;-1.69;100.00
49843;BME280;55559;48.898;9.184;2023-01-27T01:16:11;98702.97;;;-1.67;100.00
49843;BME280;55559;48.898;9.184;2023-01-27T01:18:40;98712.34;;;-1.62;100.00
49843;BME280;55559;48.898;9.184;2023-01-27T01:21:07;98713.28;;;-1.64;100.00
49843;BME280;55559;48.898;9.184;2023-01-27T01:23:37;98714.13;;;-1.64;100.00
49843;BME280;55559;48.898;9.184;2023-01-27T01:26:05;98717.75;;;-1.68;100.00
49843;BME280;55559;48.898;9.184;2023-01-27T01:28:34;98717.66;;;-1.65;100.00
49843;BME280;55559;48.898;9.184;2023-01-27T01:31:05;98712.66;;;-1.71;100.00
49843;BME280;55559;48.898;9.184;2023-01-27T01:33:34;98718.84;;;-1.74;100.00
49843;BME280;55559;48.898;9.184;2023-01-27T01:36:05;98714.66;;;-1.79;100.00
49843;BME280;55559;48.898;9.184;2023-01-27T01:38:35;98713.00;;;-1.80;100.00
49843;BME280;55559;48.898;9.184;2023-01-27T01:41:04;98705.84;;;-1.75;100.00
49843;BME280;55559;48.898;9.184;2023-01-27T01:43:31;98713.50;;;-1.71;100.00
49843;BME280;55559;48.898;9.184;2023-01-27T01:46:01;98705.56;;;-1.67;100.00
49843;BME280;55559;48.898;9.184;2023-01-27T01:48:32;98695.19;;;-1.69;100.00
49843;BME280;55559;48.898;9.184;2023-01-27T01:51:05;98698.38;;;-1.61;100.00
49843;BME280;55559;48.898;9.184;2023-01-27T01:53:38;98702.75;;;-1.61;100.00
49843;BME280;55559;48.898;9.184;2023-01-27T01:56:11;98696.91;;;-1.68;100.00
49843;BME280;55559;48.898;9.184;2023-01-27T01:59:07;98686.69;;;-1.74;100.00
49843;BME280;55559;48.898;9.184;2023-01-27T02:01:37;98688.28;;;-1.70;100.00
49843;BME280;55559;48.898;9.184;2023-01-27T02:04:07;98684.75;;;-1.69;100.00
49843;BME280;55559;48.898;9.184;2023-01-27T02:06:44;98689.97;;;-1.69;100.00
49843;BME280;55559;48.898;9.184;2023-01-27T02:09:17;98682.84;;;-1.64;100.00
49843;BME280;55559;48.898;9.184;2023-01-27T02:12:11;98683.72;;;-1.63;100.00
49843;BME280;55559;48.898;9.184;2023-01-27T02:14:40;98683.72;;;-1.63;100.00
49843;BME280;55559;48.898;9.184;2023-01-27T02:17:12;98675.06;;;-1.65;100.00
49843;BME280;55559;48.898;9.184;2023-01-27T02:19:45;98675.25;;;-1.70;100.00
49843;BME280;55559;48.898;9.184;2023-01-27T02:22:24;98674.53;;;-1.74;100.00
49843;BME280;55559;48.898;9.184;2023-01-27T02:24:58;98678.19;;;-1.79;100.00
49843;BME280;55559;48.898;9.184;2023-01-27T02:27:31;98680.78;;;-1.79;100.00
49843;BME280;55559;48.898;9.184;2023-01-27T02:29:58;98680.53;;;-1.72;100.00
49843;BME280;55559;48.898;9.184;2023-01-27T02:32:26;98669.13;;;-1.69;100.00
49843;BME280;55559;48.898;9.184;2023-01-27T02:34:55;98677.81;;;-1.69;100.00
49843;BME280;55559;48.898;9.184;2023-01-27T02:37:24;98678.91;;;-1.76;100.00
49843;BME280;55559;48.898;9.184;2023-01-27T02:39:54;98677.28;;;-1.78;100.00
49843;BME280;55559;48.898;9.184;2023-01-27T02:42:23;98679.84;;;-1.77;100.00
49843;BME280;55559;48.898;9.184;2023-01-27T02:44:51;98676.66;;;-1.85;100.00
49843;BME280;55559;48.898;9.184;2023-01-27T02:47:19;98676.75;;;-1.88;100.00
49843;BME280;55559;48.898;9.184;2023-01-27T02:49:47;98678.72;;;-1.95;100.00
49843;BME280;55559;48.898;9.184;2023-01-27T02:52:16;98672.78;;;-1.98;100.00
49843;BME280;55559;48.898;9.184;2023-01-27T02:54:43;98671.59;;;-1.90;100.00
49843;BME280;55559;48.898;9.184;2023-01-27T02:57:10;98675.22;;;-1.94;100.00
49843;BME280;55559;48.898;9.184;2023-01-27T02:59:52;98676.22;;;-1.98;100.00
49843;BME280;55559;48.898;9.184;2023-01-27T03:02:20;98672.91;;;-2.03;100.00
49843;BME280;55559;48.898;9.184;2023-01-27T03:04:58;98679.78;;;-2.00;100.00
49843;BME280;55559;48.898;9.184;2023-01-27T03:07:26;98660.91;;;-2.07;100.00
49843;BME280;55559;48.898;9.184;2023-01-27T03:09:54;98681.06;;;-2.12;100.00
49843;BME280;55559;48.898;9.184;2023-01-27T03:12:22;98675.84;;;-2.12;100.00
49843;BME280;55559;48.898;9.184;2023-01-27T03:14:52;98679.53;;;-2.19;100.00
49843;BME280;55559;48.898;9.184;2023-01-27T03:17:37;98682.34;;;-2.24;100.00
49843;BME280;55559;48.898;9.184;2023-01-27T03:20:22;98672.56;;;-2.17;100.00
49843;BME280;55559;48.898;9.184;2023-01-27T03:22:49;98675.22;;;-2.19;100.00
49843;BME280;55559;48.898;9.184;2023-01-27T03:25:20;98683.53;;;-2.09;100.00
49843;BME280;55559;48.898;9.184;2023-01-27T03:27:48;98680.19;;;-2.13;100.00
49843;BME280;55559;48.898;9.184;2023-01-27T03:30:23;98697.44;;;-2.09;100.00
49843;BME280;55559;48.898;9.184;2023-01-27T03:33:11;98686.16;;;-2.09;100.00
49843;BME280;55559;48.898;9.184;2023-01-27T03:35:44;98687.84;;;-2.08;100.00
49843;BME280;55559;48.898;9.184;2023-01-27T03:38:18;98682.59;;;-2.07;100.00
49843;BME280;55559;48.898;9.184;2023-01-27T03:41:04;98692.91;;;-2.03;100.00
49843;BME280;55559;48.898;9.184;2023-01-27T03:43:48;98693.66;;;-2.00;100.00
49843;BME280;55559;48.898;9.184;2023-01-27T03:46:35;98687.44;;;-1.96;100.00
49843;BME280;55559;48.898;9.184;2023-01-27T03:49:02;98681.28;;;-1.93;100.00
49843;BME280;55559;48.898;9.184;2023-01-27T03:51:30;98679.25;;;-1.85;100.00
49843;BME280;55559;48.898;9.184;2023-01-27T03:53:57;98678.72;;;-1.95;100.00
49843;BME280;55559;48.898;9.184;2023-01-27T03:56:25;98688.34;;;-1.97;100.00
49843;BME280;55559;48.898;9.184;2023-01-27T03:58:53;98694.91;;;-1.85;100.00
49843;BME280;55559;48.898;9.184;2023-01-27T04:01:22;98696.56;;;-1.84;100.00
49843;BME280;55559;48.898;9.184;2023-01-27T04:03:51;98686.97;;;-1.82;100.00
49843;BME280;55559;48.898;9.184;2023-01-27T04:06:37;98687.91;;;-1.84;100.00
49843;BME280;55559;48.898;9.184;2023-01-27T04:09:24;98685.09;;;-1.78;100.00
49843;BME280;55559;48.898;9.184;2023-01-27T04:11:52;98697.34;;;-1.80;100.00
49843;BME280;55559;48.898;9.184;2023-01-27T04:14:25;98692.34;;;-1.87;100.00
49843;BME280;55559;48.898;9.184;2023-01-27T04:16:55;98699.88;;;-1.79;100.00
49843;BME280;55559;48.898;9.184;2023-01-27T04:19:25;98698.34;;;-1.84;100.00
49843;BME280;55559;48.898;9.184;2023-01-27T04:21:53;98707.09;;;-1.85;100.00
49843;BME280;55559;48.898;9.184;2023-01-27T04:24:21;98702.63;;;-1.82;100.00
49843;BME280;55559;48.898;9.184;2023-01-27T04:26:51;98712.16;;;-1.82;100.00
49843;BME280;55559;48.898;9.184;2023-01-27T04:29:21;98716.69;;;-1.88;100.00
49843;BME280;55559;48.898;9.184;2023-01-27T04:31:48;98707.97;;;-1.87;100.00
49843;BME280;55559;48.898;9.184;2023-01-27T04:34:16;98700.84;;;-1.81;100.00
49843;BME280;55559;48.898;9.184;2023-01-27T04:36:46;98703.31;;;-1.77;100.00
49843;BME280;55559;48.898;9.184;2023-01-27T04:39:14;98704.88;;;-1.73;100.00
49843;BME280;55559;48.898;9.184;2023-01-27T04:41:43;98712.22;;;-1.84;100.00
49843;BME280;55559;48.898;9.184;2023-01-27T04:44:11;98713.88;;;-1.81;100.00
49843;BME280;55559;48.898;9.184;2023-01-27T04:46:39;98706.06;;;-1.81;100.00
49843;BME280;55559;48.898;9.184;2023-01-27T04:49:07;98710.25;;;-1.77;100.00
49843;BME280;55559;48.898;9.184;2023-01-27T04:51:34;98705.97;;;-1.78;100.00
49843;BME280;55559;48.898;9.184;2023-01-27T04:54:03;98705.03;;;-1.77;100.00
49843;BME280;55559;48.898;9.184;2023-01-27T04:56:32;98699.97;;;-1.80;100.00
49843;BME280;55559;48.898;9.184;2023-01-27T04:59:00;98710.44;;;-1.82;100.00
49843;BME280;55559;48.898;9.184;2023-01-27T05:01:28;98698.09;;;-1.77;100.00
49843;BME280;55559;48.898;9.184;2023-01-27T05:03:56;98710.19;;;-1.76;100.00
49843;BME280;55559;48.898;9.184;2023-01-27T05:06:24;98705.16;;;-1.80;100.00
49843;BME280;55559;48.898;9.184;2023-01-27T05:08:52;98700.75;;;-1.78;100.00
49843;BME280;55559;48.898;9.184;2023-01-27T05:11:21;98704.03;;;-1.73;100.00
49843;BME280;55559;48.898;9.184;2023-01-27T05:13:48;98696.47;;;-1.81;100.00
49843;BME280;55559;48.898;9.184;2023-01-27T05:16:18;98689.28;;;-1.74;100.00
49843;BME280;55559;48.898;9.184;2023-01-27T05:18:47;98689.53;;;-1.80;100.00
49843;BME280;55559;48.898;9.184;2023-01-27T05:21:17;98700.47;;;-1.71;100.00
49843;BME280;55559;48.898;9.184;2023-01-27T05:23:45;98713.69;;;-1.75;100.00
49843;BME280;55559;48.898;9.184;2023-01-27T05:26:13;98718.19;;;-1.80;100.00
49843;BME280;55559;48.898;9.184;2023-01-27T05:28:44;98715.69;;;-1.83;100.00
49843;BME280;55559;48.898;9.184;2023-01-27T05:31:13;98708.66;;;-1.81;100.00
49843;BME280;55559;48.898;9.184;2023-01-27T05:33:41;98721.69;;;-1.81;100.00
49843;BME280;55559;48.898;9.184;2023-01-27T05:36:11;98716.25;;;-1.74;100.00
49843;BME280;55559;48.898;9.184;2023-01-27T05:38:38;98722.19;;;-1.70;100.00
49843;BME280;55559;48.898;9.184;2023-01-27T05:41:07;98734.47;;;-1.74;100.00
49843;BME280;55559;48.898;9.184;2023-01-27T05:43:36;98732.72;;;-1.73;100.00
49843;BME280;55559;48.898;9.184;2023-01-27T05:46:06;98727.50;;;-1.73;100.00
49843;BME280;55559;48.898;9.184;2023-01-27T05:48:35;98734.53;;;-1.75;100.00
49843;BME280;55559;48.898;9.184;2023-01-27T05:51:05;98737.25;;;-1.78;100.00
49843;BME280;55559;48.898;9.184;2023-01-27T05:53:33;98735.22;;;-1.70;100.00
49843;BME280;55559;48.898;9.184;2023-01-27T05:56:02;98730.84;;;-1.70;100.00
49843;BME280;55559;48.898;9.184;2023-01-27T05:58:30;98728.44;;;-1.76;100.00
49843;BME280;55559;48.898;9.184;2023-01-27T06:01:07;98726.38;;;-1.66;100.00
49843;BME280;55559;48.898;9.184;2023-01-27T06:03:35;98724.59;;;-1.65;100.00
49843;BME280;55559;48.898;9.184;2023-01-27T06:06:03;98722.97;;;-1.68;100.00
49843;BME280;55559;48.898;9.184;2023-01-27T06:08:31;98735.63;;;-1.82;100.00
49843;BME280;55559;48.898;9.184;2023-01-27T06:10:59;98722.34;;;-1.75;100.00
49843;BME280;55559;48.898;9.184;2023-01-27T06:13:26;98724.66;;;-1.67;100.00
49843;BME280;55559;48.898;9.184;2023-01-27T06:15:54;98723.09;;;-1.71;100.00
49843;BME280;55559;48.898;9.184;2023-01-27T06:18:23;98738.63;;;-1.68;100.00
49843;BME280;55559;48.898;9.184;2023-01-27T06:20:50;98736.00;;;-1.68;100.00
49843;BME280;55559;48.898;9.184;2023-01-27T06:23:18;98732.56;;;-1.69;100.00
49843;BME280;55559;48.898;9.184;2023-01-27T06:25:47;98733.50;;;-1.71;100.00
49843;BME280;55559;48.898;9.184;2023-01-27T06:28:16;98730.75;;;-1.66;100.00
49843;BME280;55559;48.898;9.184;2023-01-27T06:30:43;98735.91;;;-1.65;100.00
49843;BME280;55559;48.898;9.184;2023-01-27T06:33:11;98739.47;;;-1.67;100.00
49843;BME280;55559;48.898;9.184;2023-01-27T06:35:40;98735.03;;;-1.65;100.00
49843;BME280;55559;48.898;9.184;2023-01-27T06:38:10;98736.91;;;-1.69;100.00
49843;BME280;55559;48.898;9.184;2023-01-27T06:40:40;98728.34;;;-1.73;100.00
49843;BME280;55559;48.898;9.184;2023-01-27T06:43:11;98749.09;;;-1.70;100.00
49843;BME280;55559;48.898;9.184;2023-01-27T06:45:39;98756.94;;;-1.70;100.00
49843;BME280;55559;48.898;9.184;2023-01-27T06:48:07;98744.91;;;-1.74;100.00
49843;BME280;55559;48.898;9.184;2023-01-27T06:50:35;98759.53;;;-1.70;100.00
49843;BME280;55559;48.898;9.184;2023-01-27T06:53:05;98762.97;;;-1.69;100.00
49843;BME280;55559;48.898;9.184;2023-01-27T06:55:34;98766.38;;;-1.67;100.00
49843;BME280;55559;48.898;9.184;2023-01-27T06:58:06;98773.41;;;-1.69;100.00
49843;BME280;55559;48.898;9.184;2023-01-27T07:00:34;98770.81;;;-1.69;100.00
49843;BME280;55559;48.898;9.184;2023-01-27T07:03:02;98781.34;;;-1.72;100.00
49843;BME280;55559;48.898;9.184;2023-01-27T07:05:29;98787.09;;;-1.62;100.00
49843;BME280;55559;48.898;9.184;2023-01-27T07:07:57;98788.91;;;-1.64;100.00
49843;BME280;55559;48.898;9.184;2023-01-27T07:10:27;98795.78;;;-1.62;100.00
49843;BME280;55559;48.898;9.184;2023-01-27T07:13:03;98803.13;;;-1.48;100.00
49843;BME280;55559;48.898;9.184;2023-01-27T07:15:31;98810.56;;;-1.62;100.00
49843;BME280;55559;48.898;9.184;2023-01-27T07:17:59;98801.09;;;-1.65;100.00
49843;BME280;55559;48.898;9.184;2023-01-27T07:20:27;98802.59;;;-1.58;100.00
49843;BME280;55559;48.898;9.184;2023-01-27T07:22:56;98807.84;;;-1.59;100.00
49843;BME280;55559;48.898;9.184;2023-01-27T07:25:26;98807.00;;;-1.60;100.00
49843;BME280;55559;48.898;9.184;2023-01-27T07:27:53;98800.78;;;-1.56;100.00
49843;BME280;55559;48.898;9.184;2023-01-27T07:30:22;98800.13;;;-1.62;100.00
49843;BME280;55559;48.898;9.184;2023-01-27T07:32:50;98803.72;;;-1.65;100.00
49843;BME280;55559;48.898;9.184;2023-01-27T07:35:19;98814.84;;;-1.60;100.00
49843;BME280;55559;48.898;9.184;2023-01-27T07:37:47;98812.56;;;-1.71;100.00
49843;BME280;55559;48.898;9.184;2023-01-27T07:40:14;98815.22;;;-1.72;100.00
49843;BME280;55559;48.898;9.184;2023-01-27T07:42:44;98821.22;;;-1.69;100.00
49843;BME280;55559;48.898;9.184;2023-01-27T07:45:14;98815.19;;;-1.71;100.00
49843;BME280;55559;48.898;9.184;2023-01-27T07:47:42;98821.03;;;-1.64;100.00
49843;BME280;55559;48.898;9.184;2023-01-27T07:50:10;98826.06;;;-1.58;100.00
49843;BME280;55559;48.898;9.184;2023-01-27T07:53:27;98825.47;;;-1.66;100.00
49843;BME280;55559;48.898;9.184;2023-01-27T07:55:54;98837.38;;;-1.59;100.00
49843;BME280;55559;48.898;9.184;2023-01-27T07:58:23;98830.25;;;-1.54;100.00
49843;BME280;55559;48.898;9.184;2023-01-27T08:00:50;98828.97;;;-1.42;100.00
49843;BME280;55559;48.898;9.184;2023-01-27T08:03:21;98834.56;;;-1.53;100.00
49843;BME280;55559;48.898;9.184;2023-01-27T08:05:49;98822.78;;;-1.38;100.00
49843;BME280;55559;48.898;9.184;2023-01-27T08:08:16;98829.81;;;-1.40;100.00
49843;BME280;55559;48.898;9.184;2023-01-27T08:10:44;98832.50;;;-1.43;100.00
49843;BME280;55559;48.898;9.184;2023-01-27T08:13:14;98835.06;;;-1.41;100.00
49843;BME280;55559;48.898;9.184;2023-01-27T08:15:43;98838.22;;;-1.32;100.00
49843;BME280;55559;48.898;9.184;2023-01-27T08:18:10;98840.84;;;-1.32;100.00
49843;BME280;55559;48.898;9.184;2023-01-27T08:20:38;98839.22;;;-1.36;100.00
49843;BME280;55559;48.898;9.184;2023-01-27T08:23:05;98843.03;;;-1.46;100.00
49843;BME280;55559;48.898;9.184;2023-01-27T08:25:33;98843.53;;;-1.35;100.00
49843;BME280;55559;48.898;9.184;2023-01-27T08:28:00;98850.44;;;-1.34;100.00
49843;BME280;55559;48.898;9.184;2023-01-27T08:30:28;98841.66;;;-1.31;100.00
49843;BME280;55559;48.898;9.184;2023-01-27T08:32:57;98847.94;;;-1.37;100.00
49843;BME280;55559;48.898;9.184;2023-01-27T08:35:24;98846.94;;;-1.33;100.00
49843;BME280;55559;48.898;9.184;2023-01-27T08:37:52;98851.38;;;-1.35;100.00
49843;BME280;55559;48.898;9.184;2023-01-27T08:40:19;98850.41;;;-1.32;100.00
49843;BME280;55559;48.898;9.184;2023-01-27T08:42:48;98848.72;;;-1.33;100.00
49843;BME280;55559;48.898;9.184;2023-01-27T08:45:16;98856.72;;;-1.39;100.00
49843;BME280;55559;48.898;9.184;2023-01-27T08:47:43;98853.44;;;-1.44;100.00
49843;BME280;55559;48.898;9.184;2023-01-27T08:50:12;98864.13;;;-1.27;100.00
49843;BME280;55559;48.898;9.184;2023-01-27T08:52:40;98859.16;;;-1.33;100.00
49843;BME280;55559;48.898;9.184;2023-01-27T08:55:07;98863.44;;;-1.32;100.00
49843;BME280;55559;48.898;9.184;2023-01-27T08:57:35;98869.50;;;-1.06;100.00
49843;BME280;55559;48.898;9.184;2023-01-27T09:00:03;98863.25;;;-1.26;100.00
49843;BME280;55559;48.898;9.184;2023-01-27T09:02:31;98872.59;;;-1.20;100.00
49843;BME280;55559;48.898;9.184;2023-01-27T09:04:59;98873.94;;;-1.08;100.00
49843;BME280;55559;48.898;9.184;2023-01-27T09:07:28;98872.94;;;-1.04;100.00
49843;BME280;55559;48.898;9.184;2023-01-27T09:09:55;98868.81;;;-1.12;100.00
49843;BME280;55559;48.898;9.184;2023-01-27T09:12:22;98861.63;;;-1.05;100.00
49843;BME280;55559;48.898;9.184;2023-01-27T09:14:50;98863.59;;;-1.12;100.00
49843;BME280;55559;48.898;9.184;2023-01-27T09:17:18;98853.84;;;-1.06;100.00
49843;BME280;55559;48.898;9.184;2023-01-27T09:19:45;98850.63;;;-0.89;100.00
49843;BME280;55559;48.898;9.184;2023-01-27T09:22:12;98861.16;;;-0.91;100.00
49843;BME280;55559;48.898;9.184;2023-01-27T09:24:41;98859.75;;;-1.01;100.00
49843;BME280;55559;48.898;9.184;2023-01-27T09:27:09;98851.41;;;-0.86;100.00
49843;BME280;55559;48.898;9.184;2023-01-27T09:29:36;98861.44;;;-0.75;100.00
49843;BME280;55559;48.898;9.184;2023-01-27T09:32:04;98867.28;;;-0.92;100.00
49843;BME280;55559;48.898;9.184;2023-01-27T09:34:33;98868.63;;;-0.82;100.00
49843;BME280;55559;48.898;9.184;2023-01-27T09:37:27;98863.78;;;-0.67;100.00
49843;BME280;55559;48.898;9.184;2023-01-27T09:39:59;98864.03;;;-0.75;100.00
49843;BME280;55559;48.898;9.184;2023-01-27T09:43:14;98863.72;;;-0.66;100.00
49843;BME280;55559;48.898;9.184;2023-01-27T09:46:04;98864.78;;;-0.48;100.00
49843;BME280;55559;48.898;9.184;2023-01-27T09:48:50;98860.53;;;-0.50;100.00
49843;BME280;55559;48.898;9.184;2023-01-27T09:51:27;98859.28;;;-0.40;100.00
49843;BME280;55559;48.898;9.184;2023-01-27T09:54:26;98860.69;;;-0.31;100.00
49843;BME280;55559;48.898;9.184;2023-01-27T09:57:07;98859.78;;;-0.30;100.00
49843;BME280;55559;48.898;9.184;2023-01-27T10:00:10;98857.34;;;-0.59;100.00
49843;BME280;55559;48.898;9.184;2023-01-27T10:08:53;98865.84;;;-0.30;100.00
49843;BME280;55559;48.898;9.184;2023-01-27T10:11:29;98869.44;;;-0.10;100.00
49843;BME280;55559;48.898;9.184;2023-01-27T10:14:15;98870.25;;;-0.30;100.00
49843;BME280;55559;48.898;9.184;2023-01-27T10:17:02;98853.19;;;-0.41;100.00
49843;BME280;55559;48.898;9.184;2023-01-27T10:19:45;98868.16;;;-0.22;100.00
49843;BME280;55559;48.898;9.184;2023-01-27T10:22:19;98856.81;;;-0.21;100.00
49843;BME280;55559;48.898;9.184;2023-01-27T10:25:01;98854.75;;;-0.13;100.00
49843;BME280;55559;48.898;9.184;2023-01-27T10:27:35;98859.59;;;-0.04;100.00
49843;BME280;55559;48.898;9.184;2023-01-27T10:30:09;98858.69;;;-0.03;100.00
49843;BME280;55559;48.898;9.184;2023-01-27T10:32:43;98862.41;;;0.14;100.00
49843;BME280;55559;48.898;9.184;2023-01-27T10:35:16;98856.53;;;-0.13;100.00
49843;BME280;55559;48.898;9.184;2023-01-27T10:37:56;98851.34;;;-0.15;100.00
49843;BME280;55559;48.898;9.184;2023-01-27T10:40:36;98853.53;;;-0.04;100.00
49843;BME280;55559;48.898;9.184;2023-01-27T10:43:13;98854.31;;;0.20;100.00
49843;BME280;55559;48.898;9.184;2023-01-27T10:45:51;98857.25;;;-0.10;100.00
49843;BME280;55559;48.898;9.184;2023-01-27T10:48:32;98861.06;;;-0.18;100.00
49843;BME280;55559;48.898;9.184;2023-01-27T10:51:06;98864.81;;;-0.04;100.00
49843;BME280;55559;48.898;9.184;2023-01-27T10:53:43;98862.28;;;-0.05;100.00
49843;BME280;55559;48.898;9.184;2023-01-27T10:56:18;98866.97;;;0.09;100.00
49843;BME280;55559;48.898;9.184;2023-01-27T10:58:56;98869.81;;;0.03;100.00
49843;BME280;55559;48.898;9.184;2023-01-27T11:01:31;98863.09;;;-0.03;100.00
49843;BME280;55559;48.898;9.184;2023-01-27T11:04:02;98871.53;;;-0.18;100.00
49843;BME280;55559;48.898;9.184;2023-01-27T11:06:35;98867.38;;;-0.24;100.00
49843;BME280;55559;48.898;9.184;2023-01-27T11:09:09;98865.13;;;-0.33;100.00
49843;BME280;55559;48.898;9.184;2023-01-27T11:11:39;98863.63;;;-0.41;100.00
49843;BME280;55559;48.898;9.184;2023-01-27T11:14:15;98868.50;;;-0.53;100.00
49843;BME280;55559;48.898;9.184;2023-01-27T11:16:47;98872.56;;;-0.46;100.00
49843;BME280;55559;48.898;9.184;2023-01-27T11:19:27;98860.91;;;-0.38;100.00
49843;BME280;55559;48.898;9.184;2023-01-27T11:21:57;98863.00;;;-0.47;100.00
49843;BME280;55559;48.898;9.184;2023-01-27T11:24:31;98869.22;;;-0.50;100.00
49843;BME280;55559;48.898;9.184;2023-01-27T11:27:09;98867.22;;;-0.43;100.00
49843;BME280;55559;48.898;9.184;2023-01-27T11:29:44;98864.56;;;-0.42;100.00
49843;BME280;55559;48.898;9.184;2023-01-27T11:32:25;98859.56;;;-0.48;100.00
49843;BME280;55559;48.898;9.184;2023-01-27T11:35:01;98845.22;;;-0.38;100.00
49843;BME280;55559;48.898;9.184;2023-01-27T11:37:32;98847.13;;;-0.19;100.00
49843;BME280;55559;48.898;9.184;2023-01-27T11:40:01;98845.63;;;-0.03;100.00
49843;BME280;55559;48.898;9.184;2023-01-27T11:42:30;98842.84;;;0.02;100.00
49843;BME280;55559;48.898;9.184;2023-01-27T11:45:00;98849.97;;;-0.02;100.00
49843;BME280;55559;48.898;9.184;2023-01-27T11:47:32;98850.84;;;-0.25;100.00
49843;BME280;55559;48.898;9.184;2023-01-27T11:50:05;98855.34;;;-0.28;100.00
49843;BME280;55559;48.898;9.184;2023-01-27T11:52:33;98841.09;;;-0.43;100.00
49843;BME280;55559;48.898;9.184;2023-01-27T11:55:05;98857.09;;;-0.52;100.00
49843;BME280;55559;48.898;9.184;2023-01-27T11:57:35;98839.06;;;-0.59;100.00
49843;BME280;55559;48.898;9.184;2023-01-27T12:00:15;98839.22;;;-0.40;100.00
49843;BME280;55559;48.898;9.184;2023-01-27T12:02:51;98837.34;;;-0.36;100.00
49843;BME280;55559;48.898;9.184;2023-01-27T12:05:26;98841.00;;;-0.40;100.00
49843;BME280;55559;48.898;9.184;2023-01-27T12:07:58;98844.13;;;-0.54;100.00
49843;BME280;55559;48.898;9.184;2023-01-27T12:10:28;98844.34;;;-0.36;100.00
49843;BME280;55559;48.898;9.184;2023-01-27T12:13:01;98830.78;;;-0.24;100.00
49843;BME280;55559;48.898;9.184;2023-01-27T12:15:34;98820.59;;;-0.08;100.00
49843;BME280;55559;48.898;9.184;2023-01-27T12:18:11;98827.09;;;-0.18;100.00
49843;BME280;55559;48.898;9.184;2023-01-27T12:20:40;98822.81;;;-0.21;100.00
49843;BME280;55559;48.898;9.184;2023-01-27T12:23:19;98824.59;;;0.01;100.00
49843;BME280;55559;48.898;9.184;2023-01-27T12:25:51;98825.66;;;-0.05;100.00
49843;BME280;55559;48.898;9.184;2023-01-27T12:28:30;98824.03;;;-0.08;100.00
49843;BME280;55559;48.898;9.184;2023-01-27T12:31:04;98822.66;;;-0.16;100.00
49843;BME280;55559;48.898;9.184;2023-01-27T12:33:36;98813.59;;;-0.30;100.00
49843;BME280;55559;48.898;9.184;2023-01-27T12:36:11;98817.66;;;-0.23;100.00
49843;BME280;55559;48.898;9.184;2023-01-27T12:38:44;98817.66;;;-0.23;100.00
49843;BME280;55559;48.898;9.184;2023-01-27T12:41:19;98815.72;;;-0.17;100.00
49843;BME280;55559;48.898;9.184;2023-01-27T12:43:52;98824.09;;;-0.09;100.00
49843;BME280;55559;48.898;9.184;2023-01-27T12:46:22;98823.38;;;-0.13;100.00
49843;BME280;55559;48.898;9.184;2023-01-27T12:48:54;98822.38;;;-0.10;100.00
49843;BME280;55559;48.898;9.184;2023-01-27T12:51:37;98820.75;;;-0.13;100.00
49843;BME280;55559;48.898;9.184;2023-01-27T12:54:19;98822.50;;;-0.35;100.00
49843;BME280;55559;48.898;9.184;2023-01-27T12:56:48;98827.09;;;-0.18;100.00
49843;BME280;55559;48.898;9.184;2023-01-27T12:59:17;98829.00;;;-0.46;100.00
49843;BME280;55559;48.898;9.184;2023-01-27T13:01:57;98828.25;;;-0.49;100.00
49843;BME280;55559;48.898;9.184;2023-01-27T13:04:28;98826.06;;;0.71;100.00
49843;BME280;55559;48.898;9.184;2023-01-27T13:07:04;98814.19;;;-0.01;100.00
49843;BME280;55559;48.898;9.184;2023-01-27T13:09:35;98817.31;;;-0.13;100.00
49843;BME280;55559;48.898;9.184;2023-01-27T13:12:11;98828.00;;;0.03;100.00
49843;BME280;55559;48.898;9.184;2023-01-27T13:14:42;98818.63;;;0.81;100.00
49843;BME280;55559;48.898;9.184;2023-01-27T13:17:25;98816.69;;;-0.20;100.00
49843;BME280;55559;48.898;9.184;2023-01-27T13:19:54;98819.09;;;-0.38;100.00